sensor_id;sensor_type;location;lat;lon;timestamp;P1;durP1;ratioP1;P2;durP2;ratioP2
56481;SDS011;42384;45.186;19.958;2023-03-25T00:00:07;4.65;;;2.60;;
56481;SDS011;42384;45.186;19.958;2023-03-25T00:02:49;4.55;;;3.00;;
56481;SDS011;42384;45.186;19.958;2023-03-25T00:05:19;4.63;;;2.65;;
56481;SDS011;42384;45.186;19.958;2023-03-25T00:07:50;6.00;;;3.30;;
56481;SDS011;42384;45.186;19.958;2023-03-25T00:10:17;5.50;;;2.58;;
56481;SDS011;42384;45.186;19.958;2023-03-25T00:12:43;5.60;;;3.03;;
56481;SDS011;42384;45.186;19.958;2023-03-25T00:15:10;7.25;;;2.80;;
56481;SDS011;42384;45.186;19.958;2023-03-25T00:17:37;5.80;;;2.40;;
56481;SDS011;42384;45.186;19.958;2023-03-25T00:20:07;6.50;;;3.13;;
56481;SDS011;42384;45.186;19.958;2023-03-25T00:22:34;4.22;;;2.40;;
56481;SDS011;42384;45.186;19.958;2023-03-25T00:25:05;6.70;;;2.58;;
56481;SDS011;42384;45.186;19.958;2023-03-25T00:27:32;6.97;;;2.28;;
56481;SDS011;42384;45.186;19.958;2023-03-25T00:29:58;5.25;;;2.63;;
56481;SDS011;42384;45.186;19.958;2023-03-25T00:32:24;9.85;;;2.53;;
56481;SDS011;42384;45.186;19.958;2023-03-25T00:34:53;5.10;;;2.40;;
56481;SDS011;42384;45.186;19.958;2023-03-25T00:37:19;6.07;;;2.53;;
56481;SDS011;42384;45.186;19.958;2023-03-25T00:42:16;3.90;;;2.25;;
56481;SDS011;42384;45.186;19.958;2023-03-25T00:44:50;5.18;;;2.92;;
56481;SDS011;42384;45.186;19.958;2023-03-25T00:47:16;4.47;;;2.25;;
56481;SDS011;42384;45.186;19.958;2023-03-25T00:49:44;5.00;;;2.50;;
56481;SDS011;42384;45.186;19.958;2023-03-25T00:52:11;7.07;;;2.65;;
56481;SDS011;42384;45.186;19.958;2023-03-25T00:54:38;7.97;;;3.38;;
56481;SDS011;42384;45.186;19.958;2023-03-25T00:57:04;5.47;;;2.78;;
56481;SDS011;42384;45.186;19.958;2023-03-25T00:59:30;4.00;;;2.10;;
56481;SDS011;42384;45.186;19.958;2023-03-25T01:01:56;5.38;;;2.15;;
56481;SDS011;42384;45.186;19.958;2023-03-25T01:04:23;4.30;;;2.47;;
56481;SDS011;42384;45.186;19.958;2023-03-25T01:06:49;9.50;;;2.28;;
56481;SDS011;42384;45.186;19.958;2023-03-25T01:09:16;5.90;;;2.70;;
56481;SDS011;42384;45.186;19.958;2023-03-25T01:11:44;5.13;;;2.72;;
56481;SDS011;42384;45.186;19.958;2023-03-25T01:14:15;3.63;;;2.38;;
56481;SDS011;42384;45.186;19.958;2023-03-25T01:16:41;5.82;;;2.40;;
56481;SDS011;42384;45.186;19.958;2023-03-25T01:19:08;5.20;;;2.08;;
56481;SDS011;42384;45.186;19.958;2023-03-25T01:21:35;7.05;;;2.60;;
56481;SDS011;42384;45.186;19.958;2023-03-25T01:24:02;3.35;;;2.58;;
56481;SDS011;42384;45.186;19.958;2023-03-25T01:26:29;5.75;;;2.58;;
56481;SDS011;42384;45.186;19.958;2023-03-25T01:28:56;7.55;;;3.03;;
56481;SDS011;42384;45.186;19.958;2023-03-25T01:31:22;5.20;;;2.53;;
56481;SDS011;42384;45.186;19.958;2023-03-25T01:33:50;4.40;;;2.45;;
56481;SDS011;42384;45.186;19.958;2023-03-25T01:36:16;4.32;;;2.65;;
56481;SDS011;42384;45.186;19.958;2023-03-25T01:38:45;7.32;;;2.70;;
56481;SDS011;42384;45.186;19.958;2023-03-25T01:43:38;8.77;;;4.38;;
56481;SDS011;42384;45.186;19.958;2023-03-25T01:46:04;9.77;;;3.22;;
56481;SDS011;42384;45.186;19.958;2023-03-25T01:48:31;6.07;;;3.92;;
56481;SDS011;42384;45.186;19.958;2023-03-25T01:51:13;7.65;;;4.43;;
56481;SDS011;42384;45.186;19.958;2023-03-25T01:53:41;4.95;;;2.13;;
56481;SDS011;42384;45.186;19.958;2023-03-25T01:56:08;11.55;;;6.50;;
56481;SDS011;42384;45.186;19.958;2023-03-25T01:58:37;8.15;;;3.05;;
56481;SDS011;42384;45.186;19.958;2023-03-25T02:01:05;5.50;;;2.65;;
56481;SDS011;42384;45.186;19.958;2023-03-25T02:03:38;6.88;;;2.88;;
56481;SDS011;42384;45.186;19.958;2023-03-25T02:06:13;6.38;;;2.92;;
56481;SDS011;42384;45.186;19.958;2023-03-25T02:08:40;5.03;;;2.45;;
56481;SDS011;42384;45.186;19.958;2023-03-25T02:11:07;5.43;;;2.55;;
56481;SDS011;42384;45.186;19.958;2023-03-25T02:13:34;5.55;;;2.63;;
56481;SDS011;42384;45.186;19.958;2023-03-25T02:16:08;4.75;;;2.28;;
56481;SDS011;42384;45.186;19.958;2023-03-25T02:18:42;5.18;;;2.60;;
56481;SDS011;42384;45.186;19.958;2023-03-25T02:41:38;3.55;;;2.20;;
56481;SDS011;42384;45.186;19.958;2023-03-25T02:44:07;7.82;;;3.05;;
56481;SDS011;42384;45.186;19.958;2023-03-25T02:46:37;5.72;;;2.83;;
56481;SDS011;42384;45.186;19.958;2023-03-25T02:49:17;4.32;;;2.60;;
56481;SDS011;42384;45.186;19.958;2023-03-25T02:51:47;6.88;;;3.22;;
56481;SDS011;42384;45.186;19.958;2023-03-25T02:54:16;7.95;;;2.58;;
56481;SDS011;42384;45.186;19.958;2023-03-25T02:56:43;5.63;;;2.90;;
56481;SDS011;42384;45.186;19.958;2023-03-25T02:59:11;3.80;;;2.67;;
56481;SDS011;42384;45.186;19.958;2023-03-25T03:01:39;5.93;;;2.47;;
56481;SDS011;42384;45.186;19.958;2023-03-25T03:04:05;7.07;;;3.25;;
56481;SDS011;42384;45.186;19.958;2023-03-25T03:06:33;4.40;;;2.45;;
56481;SDS011;42384;45.186;19.958;2023-03-25T03:09:14;6.13;;;2.70;;
56481;SDS011;42384;45.186;19.958;2023-03-25T03:16:48;5.15;;;2.50;;
56481;SDS011;42384;45.186;19.958;2023-03-25T03:19:36;4.82;;;2.60;;
56481;SDS011;42384;45.186;19.958;2023-03-25T03:22:46;5.00;;;2.60;;
56481;SDS011;42384;45.186;19.958;2023-03-25T03:25:14;4.03;;;2.70;;
56481;SDS011;42384;45.186;19.958;2023-03-25T03:27:46;6.60;;;2.58;;
56481;SDS011;42384;45.186;19.958;2023-03-25T03:30:16;4.55;;;2.60;;
56481;SDS011;42384;45.186;19.958;2023-03-25T03:35:15;5.68;;;3.53;;
56481;SDS011;42384;45.186;19.958;2023-03-25T03:37:44;11.93;;;5.90;;
56481;SDS011;42384;45.186;19.958;2023-03-25T03:40:14;6.40;;;2.40;;
56481;SDS011;42384;45.186;19.958;2023-03-25T03:42:42;5.45;;;2.58;;
56481;SDS011;42384;45.186;19.958;2023-03-25T03:45:14;5.65;;;2.45;;
56481;SDS011;42384;45.186;19.958;2023-03-25T03:47:43;5.93;;;2.55;;
56481;SDS011;42384;45.186;19.958;2023-03-25T03:50:15;6.28;;;2.45;;
56481;SDS011;42384;45.186;19.958;2023-03-25T03:52:43;4.10;;;2.45;;
56481;SDS011;42384;45.186;19.958;2023-03-25T03:55:15;4.22;;;2.63;;
56481;SDS011;42384;45.186;19.958;2023-03-25T03:57:50;4.93;;;2.60;;
56481;SDS011;42384;45.186;19.958;2023-03-25T04:00:21;5.82;;;2.72;;
56481;SDS011;42384;45.186;19.958;2023-03-25T04:03:13;7.43;;;3.53;;
56481;SDS011;42384;45.186;19.958;2023-03-25T04:05:38;3.75;;;2.80;;
56481;SDS011;42384;45.186;19.958;2023-03-25T04:08:11;3.72;;;2.50;;
56481;SDS011;42384;45.186;19.958;2023-03-25T04:10:39;4.35;;;2.53;;
56481;SDS011;42384;45.186;19.958;2023-03-25T04:13:10;5.50;;;2.50;;
56481;SDS011;42384;45.186;19.958;2023-03-25T04:15:38;4.68;;;2.67;;
56481;SDS011;42384;45.186;19.958;2023-03-25T04:18:05;3.72;;;2.45;;
56481;SDS011;42384;45.186;19.958;2023-03-25T04:22:59;6.38;;;2.33;;
56481;SDS011;42384;45.186;19.958;2023-03-25T04:25:25;6.70;;;2.50;;
56481;SDS011;42384;45.186;19.958;2023-03-25T04:27:52;4.13;;;1.92;;
56481;SDS011;42384;45.186;19.958;2023-03-25T04:30:23;5.85;;;2.78;;
56481;SDS011;42384;45.186;19.958;2023-03-25T04:32:50;6.85;;;3.08;;
56481;SDS011;42384;45.186;19.958;2023-03-25T04:35:17;5.72;;;2.60;;
56481;SDS011;42384;45.186;19.958;2023-03-25T04:37:46;6.28;;;2.60;;
56481;SDS011;42384;45.186;19.958;2023-03-25T04:40:18;5.47;;;2.58;;
56481;SDS011;42384;45.186;19.958;2023-03-25T04:42:45;8.23;;;2.90;;
56481;SDS011;42384;45.186;19.958;2023-03-25T04:45:12;7.65;;;2.60;;
56481;SDS011;42384;45.186;19.958;2023-03-25T04:47:47;7.28;;;2.65;;
56481;SDS011;42384;45.186;19.958;2023-03-25T04:52:46;8.98;;;2.58;;
56481;SDS011;42384;45.186;19.958;2023-03-25T04:55:13;7.75;;;2.92;;
56481;SDS011;42384;45.186;19.958;2023-03-25T04:57:46;12.45;;;3.30;;
56481;SDS011;42384;45.186;19.958;2023-03-25T05:00:13;8.90;;;2.63;;
56481;SDS011;42384;45.186;19.958;2023-03-25T05:02:43;5.45;;;2.40;;
56481;SDS011;42384;45.186;19.958;2023-03-25T05:05:10;6.30;;;2.35;;
56481;SDS011;42384;45.186;19.958;2023-03-25T05:07:45;4.47;;;2.30;;
56481;SDS011;42384;45.186;19.958;2023-03-25T05:10:13;12.27;;;2.40;;
56481;SDS011;42384;45.186;19.958;2023-03-25T05:12:40;6.38;;;2.42;;
56481;SDS011;42384;45.186;19.958;2023-03-25T05:15:07;4.88;;;2.00;;
56481;SDS011;42384;45.186;19.958;2023-03-25T05:17:34;3.95;;;2.17;;
56481;SDS011;42384;45.186;19.958;2023-03-25T05:20:00;4.85;;;2.08;;
56481;SDS011;42384;45.186;19.958;2023-03-25T05:22:26;2.70;;;1.60;;
56481;SDS011;42384;45.186;19.958;2023-03-25T05:24:52;4.90;;;1.98;;
56481;SDS011;42384;45.186;19.958;2023-03-25T05:27:20;4.35;;;2.20;;
56481;SDS011;42384;45.186;19.958;2023-03-25T05:29:46;5.25;;;2.45;;
56481;SDS011;42384;45.186;19.958;2023-03-25T05:32:13;3.15;;;1.98;;
56481;SDS011;42384;45.186;19.958;2023-03-25T05:34:44;5.80;;;2.20;;
56481;SDS011;42384;45.186;19.958;2023-03-25T05:37:11;6.00;;;1.92;;
56481;SDS011;42384;45.186;19.958;2023-03-25T05:39:38;5.53;;;2.20;;
56481;SDS011;42384;45.186;19.958;2023-03-25T05:42:04;8.15;;;2.25;;
56481;SDS011;42384;45.186;19.958;2023-03-25T05:44:31;10.38;;;2.60;;
56481;SDS011;42384;45.186;19.958;2023-03-25T05:46:57;8.07;;;2.60;;
56481;SDS011;42384;45.186;19.958;2023-03-25T05:49:26;4.13;;;2.03;;
56481;SDS011;42384;45.186;19.958;2023-03-25T05:51:53;7.95;;;2.40;;
56481;SDS011;42384;45.186;19.958;2023-03-25T05:54:20;8.57;;;2.75;;
56481;SDS011;42384;45.186;19.958;2023-03-25T05:56:51;5.40;;;2.70;;
56481;SDS011;42384;45.186;19.958;2023-03-25T05:59:17;8.48;;;3.10;;
56481;SDS011;42384;45.186;19.958;2023-03-25T06:01:44;7.15;;;3.00;;
56481;SDS011;42384;45.186;19.958;2023-03-25T06:04:11;8.48;;;3.65;;
56481;SDS011;42384;45.186;19.958;2023-03-25T06:09:04;11.20;;;3.30;;
56481;SDS011;42384;45.186;19.958;2023-03-25T06:14:02;4.13;;;2.85;;
56481;SDS011;42384;45.186;19.958;2023-03-25T06:16:29;6.03;;;2.70;;
56481;SDS011;42384;45.186;19.958;2023-03-25T06:18:56;5.50;;;2.83;;
56481;SDS011;42384;45.186;19.958;2023-03-25T06:21:29;8.23;;;2.70;;
56481;SDS011;42384;45.186;19.958;2023-03-25T06:23:57;4.70;;;2.53;;
56481;SDS011;42384;45.186;19.958;2023-03-25T06:26:25;6.35;;;2.85;;
56481;SDS011;42384;45.186;19.958;2023-03-25T06:28:51;5.45;;;2.63;;
56481;SDS011;42384;45.186;19.958;2023-03-25T06:31:19;5.07;;;2.45;;
56481;SDS011;42384;45.186;19.958;2023-03-25T06:33:47;6.53;;;3.08;;
56481;SDS011;42384;45.186;19.958;2023-03-25T06:36:15;7.93;;;3.28;;
56481;SDS011;42384;45.186;19.958;2023-03-25T06:38:48;9.27;;;3.15;;
56481;SDS011;42384;45.186;19.958;2023-03-25T06:41:15;5.72;;;2.97;;
56481;SDS011;42384;45.186;19.958;2023-03-25T06:43:45;5.10;;;3.10;;
56481;SDS011;42384;45.186;19.958;2023-03-25T06:48:37;5.95;;;3.10;;
56481;SDS011;42384;45.186;19.958;2023-03-25T06:51:04;8.07;;;3.30;;
56481;SDS011;42384;45.186;19.958;2023-03-25T06:53:30;5.47;;;3.10;;
56481;SDS011;42384;45.186;19.958;2023-03-25T06:55:56;14.32;;;3.78;;
56481;SDS011;42384;45.186;19.958;2023-03-25T06:58:22;12.53;;;4.00;;
56481;SDS011;42384;45.186;19.958;2023-03-25T07:00:52;17.13;;;5.00;;
56481;SDS011;42384;45.186;19.958;2023-03-25T07:03:19;8.95;;;4.90;;
56481;SDS011;42384;45.186;19.958;2023-03-25T07:05:46;7.30;;;3.80;;
56481;SDS011;42384;45.186;19.958;2023-03-25T07:08:12;9.18;;;4.32;;
56481;SDS011;42384;45.186;19.958;2023-03-25T07:10:38;13.73;;;4.70;;
56481;SDS011;42384;45.186;19.958;2023-03-25T07:13:05;12.68;;;4.30;;
56481;SDS011;42384;45.186;19.958;2023-03-25T07:15:31;7.93;;;4.07;;
56481;SDS011;42384;45.186;19.958;2023-03-25T07:17:57;6.83;;;4.00;;
56481;SDS011;42384;45.186;19.958;2023-03-25T07:20:23;8.50;;;3.15;;
56481;SDS011;42384;45.186;19.958;2023-03-25T07:22:49;5.13;;;2.33;;
56481;SDS011;42384;45.186;19.958;2023-03-25T07:25:16;7.25;;;2.70;;
56481;SDS011;42384;45.186;19.958;2023-03-25T07:27:42;17.65;;;3.88;;
56481;SDS011;42384;45.186;19.958;2023-03-25T07:30:08;6.20;;;2.95;;
56481;SDS011;42384;45.186;19.958;2023-03-25T07:32:35;6.47;;;2.65;;
56481;SDS011;42384;45.186;19.958;2023-03-25T07:35:01;5.25;;;2.47;;
56481;SDS011;42384;45.186;19.958;2023-03-25T07:37:28;5.57;;;2.58;;
56481;SDS011;42384;45.186;19.958;2023-03-25T07:39:54;5.78;;;2.50;;
56481;SDS011;42384;45.186;19.958;2023-03-25T07:42:20;30.45;;;10.50;;
56481;SDS011;42384;45.186;19.958;2023-03-25T07:44:46;7.25;;;3.70;;
56481;SDS011;42384;45.186;19.958;2023-03-25T07:47:12;7.88;;;2.90;;
56481;SDS011;42384;45.186;19.958;2023-03-25T07:49:39;9.77;;;2.50;;
56481;SDS011;42384;45.186;19.958;2023-03-25T07:52:05;5.90;;;2.60;;
56481;SDS011;42384;45.186;19.958;2023-03-25T07:56:58;7.65;;;3.42;;
56481;SDS011;42384;45.186;19.958;2023-03-25T07:59:24;7.38;;;2.50;;
56481;SDS011;42384;45.186;19.958;2023-03-25T08:01:51;10.73;;;2.38;;
56481;SDS011;42384;45.186;19.958;2023-03-25T08:04:17;18.67;;;2.53;;
56481;SDS011;42384;45.186;19.958;2023-03-25T08:06:43;8.23;;;2.00;;
56481;SDS011;42384;45.186;19.958;2023-03-25T08:09:10;5.20;;;1.98;;
56481;SDS011;42384;45.186;19.958;2023-03-25T08:11:36;10.10;;;1.90;;
56481;SDS011;42384;45.186;19.958;2023-03-25T08:14:02;3.47;;;1.52;;
56481;SDS011;42384;45.186;19.958;2023-03-25T08:16:28;8.03;;;2.00;;
56481;SDS011;42384;45.186;19.958;2023-03-25T08:18:55;4.30;;;1.80;;
56481;SDS011;42384;45.186;19.958;2023-03-25T08:21:21;6.22;;;1.73;;
56481;SDS011;42384;45.186;19.958;2023-03-25T08:23:52;9.60;;;2.33;;
56481;SDS011;42384;45.186;19.958;2023-03-25T08:26:25;7.90;;;1.80;;
56481;SDS011;42384;45.186;19.958;2023-03-25T08:28:52;2.92;;;1.48;;
56481;SDS011;42384;45.186;19.958;2023-03-25T08:31:22;4.25;;;1.60;;
56481;SDS011;42384;45.186;19.958;2023-03-25T08:33:49;3.75;;;1.30;;
56481;SDS011;42384;45.186;19.958;2023-03-25T08:36:15;5.22;;;1.60;;
56481;SDS011;42384;45.186;19.958;2023-03-25T08:38:47;3.97;;;1.42;;
56481;SDS011;42384;45.186;19.958;2023-03-25T08:41:14;3.00;;;1.42;;
56481;SDS011;42384;45.186;19.958;2023-03-25T08:43:40;3.30;;;1.60;;
56481;SDS011;42384;45.186;19.958;2023-03-25T08:46:06;2.92;;;1.75;;
56481;SDS011;42384;45.186;19.958;2023-03-25T08:48:32;4.60;;;1.77;;
56481;SDS011;42384;45.186;19.958;2023-03-25T08:50:59;4.28;;;2.03;;
56481;SDS011;42384;45.186;19.958;2023-03-25T08:53:25;4.13;;;2.00;;
56481;SDS011;42384;45.186;19.958;2023-03-25T08:55:52;7.60;;;1.77;;
56481;SDS011;42384;45.186;19.958;2023-03-25T09:00:46;9.40;;;1.90;;
56481;SDS011;42384;45.186;19.958;2023-03-25T09:03:12;8.55;;;2.00;;
56481;SDS011;42384;45.186;19.958;2023-03-25T09:05:38;4.07;;;1.50;;
56481;SDS011;42384;45.186;19.958;2023-03-25T09:08:05;3.83;;;1.40;;
56481;SDS011;42384;45.186;19.958;2023-03-25T09:10:33;3.63;;;1.75;;
56481;SDS011;42384;45.186;19.958;2023-03-25T09:13:00;4.57;;;1.98;;
56481;SDS011;42384;45.186;19.958;2023-03-25T09:15:26;5.15;;;2.13;;
56481;SDS011;42384;45.186;19.958;2023-03-25T09:17:52;5.30;;;2.63;;
56481;SDS011;42384;45.186;19.958;2023-03-25T09:20:18;11.40;;;5.75;;
56481;SDS011;42384;45.186;19.958;2023-03-25T09:22:45;8.82;;;2.88;;
56481;SDS011;42384;45.186;19.958;2023-03-25T09:25:11;5.78;;;2.28;;
56481;SDS011;42384;45.186;19.958;2023-03-25T09:27:38;6.60;;;3.40;;
56481;SDS011;42384;45.186;19.958;2023-03-25T09:30:04;6.25;;;2.83;;
56481;SDS011;42384;45.186;19.958;2023-03-25T09:32:31;4.35;;;2.20;;
56481;SDS011;42384;45.186;19.958;2023-03-25T09:34:57;5.50;;;2.17;;
56481;SDS011;42384;45.186;19.958;2023-03-25T09:37:23;5.35;;;2.28;;
56481;SDS011;42384;45.186;19.958;2023-03-25T09:39:50;8.52;;;2.65;;
56481;SDS011;42384;45.186;19.958;2023-03-25T09:44:57;3.42;;;1.80;;
56481;SDS011;42384;45.186;19.958;2023-03-25T09:47:26;5.72;;;2.20;;
56481;SDS011;42384;45.186;19.958;2023-03-25T09:49:58;2.88;;;1.40;;
56481;SDS011;42384;45.186;19.958;2023-03-25T09:52:26;5.22;;;1.98;;
56481;SDS011;42384;45.186;19.958;2023-03-25T09:54:56;7.32;;;2.60;;
56481;SDS011;42384;45.186;19.958;2023-03-25T09:57:27;8.15;;;3.38;;
56481;SDS011;42384;45.186;19.958;2023-03-25T09:59:56;5.55;;;2.33;;
56481;SDS011;42384;45.186;19.958;2023-03-25T10:02:39;3.53;;;1.75;;
56481;SDS011;42384;45.186;19.958;2023-03-25T10:07:37;8.38;;;2.80;;
56481;SDS011;42384;45.186;19.958;2023-03-25T10:12:40;6.53;;;1.30;;
56481;SDS011;42384;45.186;19.958;2023-03-25T10:15:13;9.18;;;2.15;;
56481;SDS011;42384;45.186;19.958;2023-03-25T10:20:20;11.48;;;1.75;;
56481;SDS011;42384;45.186;19.958;2023-03-25T10:25:26;3.13;;;0.95;;
56481;SDS011;42384;45.186;19.958;2023-03-25T10:27:54;3.38;;;1.05;;
56481;SDS011;42384;45.186;19.958;2023-03-25T10:32:49;4.78;;;1.50;;
56481;SDS011;42384;45.186;19.958;2023-03-25T10:35:17;5.22;;;0.80;;
56481;SDS011;42384;45.186;19.958;2023-03-25T10:37:45;3.13;;;0.75;;
56481;SDS011;42384;45.186;19.958;2023-03-25T10:42:40;5.97;;;1.10;;
56481;SDS011;42384;45.186;19.958;2023-03-25T10:45:13;4.43;;;1.00;;
56481;SDS011;42384;45.186;19.958;2023-03-25T10:47:41;3.60;;;1.40;;
56481;SDS011;42384;45.186;19.958;2023-03-25T10:50:12;6.68;;;1.35;;
56481;SDS011;42384;45.186;19.958;2023-03-25T10:52:39;6.25;;;1.17;;
56481;SDS011;42384;45.186;19.958;2023-03-25T10:55:07;3.75;;;1.60;;
56481;SDS011;42384;45.186;19.958;2023-03-25T10:57:39;3.85;;;0.60;;
56481;SDS011;42384;45.186;19.958;2023-03-25T11:00:16;1.88;;;0.80;;
56481;SDS011;42384;45.186;19.958;2023-03-25T11:02:43;1.63;;;0.63;;
56481;SDS011;42384;45.186;19.958;2023-03-25T11:05:09;3.38;;;0.90;;
56481;SDS011;42384;45.186;19.958;2023-03-25T11:07:39;2.42;;;0.70;;
56481;SDS011;42384;45.186;19.958;2023-03-25T11:10:17;4.70;;;0.90;;
56481;SDS011;42384;45.186;19.958;2023-03-25T11:12:45;3.55;;;0.70;;
56481;SDS011;42384;45.186;19.958;2023-03-25T11:15:20;2.17;;;0.90;;
56481;SDS011;42384;45.186;19.958;2023-03-25T11:17:47;3.47;;;0.90;;
56481;SDS011;42384;45.186;19.958;2023-03-25T11:20:21;4.50;;;1.02;;
56481;SDS011;42384;45.186;19.958;2023-03-25T11:22:51;5.88;;;0.70;;
56481;SDS011;42384;45.186;19.958;2023-03-25T11:25:24;2.13;;;0.60;;
56481;SDS011;42384;45.186;19.958;2023-03-25T11:27:53;4.78;;;1.38;;
56481;SDS011;42384;45.186;19.958;2023-03-25T11:30:20;14.70;;;1.67;;
56481;SDS011;42384;45.186;19.958;2023-03-25T11:33:04;6.55;;;1.77;;
56481;SDS011;42384;45.186;19.958;2023-03-25T11:35:32;15.95;;;2.38;;
56481;SDS011;42384;45.186;19.958;2023-03-25T11:38:07;7.10;;;1.10;;
56481;SDS011;42384;45.186;19.958;2023-03-25T11:40:38;6.50;;;0.93;;
56481;SDS011;42384;45.186;19.958;2023-03-25T11:43:14;3.40;;;1.27;;
56481;SDS011;42384;45.186;19.958;2023-03-25T11:45:44;5.65;;;1.42;;
56481;SDS011;42384;45.186;19.958;2023-03-25T11:48:11;4.25;;;1.38;;
56481;SDS011;42384;45.186;19.958;2023-03-25T11:50:38;5.28;;;1.15;;
56481;SDS011;42384;45.186;19.958;2023-03-25T11:53:11;2.50;;;0.95;;
56481;SDS011;42384;45.186;19.958;2023-03-25T11:55:45;4.75;;;1.08;;
56481;SDS011;42384;45.186;19.958;2023-03-25T11:58:15;4.47;;;1.50;;
56481;SDS011;42384;45.186;19.958;2023-03-25T12:00:45;1.98;;;1.00;;
56481;SDS011;42384;45.186;19.958;2023-03-25T12:05:39;5.32;;;1.30;;
56481;SDS011;42384;45.186;19.958;2023-03-25T12:26:28;4.75;;;2.50;;
56481;SDS011;42384;45.186;19.958;2023-03-25T12:31:36;6.75;;;2.75;;
56481;SDS011;42384;45.186;19.958;2023-03-25T12:34:07;2.63;;;1.40;;
56481;SDS011;42384;45.186;19.958;2023-03-25T12:39:22;7.75;;;1.58;;
56481;SDS011;42384;45.186;19.958;2023-03-25T12:42:11;2.72;;;0.95;;
56481;SDS011;42384;45.186;19.958;2023-03-25T12:44:48;4.05;;;1.48;;
56481;SDS011;42384;45.186;19.958;2023-03-25T12:47:58;3.85;;;0.90;;
56481;SDS011;42384;45.186;19.958;2023-03-25T12:52:58;8.98;;;2.75;;
56481;SDS011;42384;45.186;19.958;2023-03-25T13:05:44;3.90;;;1.67;;
56481;SDS011;42384;45.186;19.958;2023-03-25T13:08:17;6.43;;;2.17;;
56481;SDS011;42384;45.186;19.958;2023-03-25T13:10:46;4.43;;;1.83;;
56481;SDS011;42384;45.186;19.958;2023-03-25T13:13:15;4.93;;;2.60;;
56481;SDS011;42384;45.186;19.958;2023-03-25T13:15:43;3.63;;;1.33;;
56481;SDS011;42384;45.186;19.958;2023-03-25T13:20:44;13.02;;;1.30;;
56481;SDS011;42384;45.186;19.958;2023-03-25T13:23:15;8.63;;;1.17;;
56481;SDS011;42384;45.186;19.958;2023-03-25T13:28:36;7.10;;;1.33;;
56481;SDS011;42384;45.186;19.958;2023-03-25T13:31:08;4.10;;;0.70;;
56481;SDS011;42384;45.186;19.958;2023-03-25T13:33:37;3.25;;;0.85;;
56481;SDS011;42384;45.186;19.958;2023-03-25T13:36:08;8.68;;;1.02;;
56481;SDS011;42384;45.186;19.958;2023-03-25T13:38:48;16.02;;;1.52;;
56481;SDS011;42384;45.186;19.958;2023-03-25T13:46:12;5.43;;;1.45;;
56481;SDS011;42384;45.186;19.958;2023-03-25T13:48:48;6.65;;;1.27;;
56481;SDS011;42384;45.186;19.958;2023-03-25T13:51:16;4.13;;;1.13;;
56481;SDS011;42384;45.186;19.958;2023-03-25T13:54:00;5.00;;;1.25;;
56481;SDS011;42384;45.186;19.958;2023-03-25T13:59:23;6.72;;;1.73;;
56481;SDS011;42384;45.186;19.958;2023-03-25T14:07:04;5.78;;;1.52;;
56481;SDS011;42384;45.186;19.958;2023-03-25T14:14:37;13.65;;;3.75;;
56481;SDS011;42384;45.186;19.958;2023-03-25T14:17:05;7.13;;;2.10;;
56481;SDS011;42384;45.186;19.958;2023-03-25T14:19:34;8.10;;;1.63;;
56481;SDS011;42384;45.186;19.958;2023-03-25T14:22:06;4.88;;;1.63;;
56481;SDS011;42384;45.186;19.958;2023-03-25T14:24:34;9.25;;;2.88;;
56481;SDS011;42384;45.186;19.958;2023-03-25T14:32:44;21.52;;;10.23;;
56481;SDS011;42384;45.186;19.958;2023-03-25T14:34:46;7.15;;;2.92;;
56481;SDS011;42384;45.186;19.958;2023-03-25T14:37:16;10.30;;;3.47;;
56481;SDS011;42384;45.186;19.958;2023-03-25T14:39:43;8.43;;;3.38;;
56481;SDS011;42384;45.186;19.958;2023-03-25T14:42:10;8.93;;;4.40;;
56481;SDS011;42384;45.186;19.958;2023-03-25T14:44:41;5.18;;;2.50;;
56481;SDS011;42384;45.186;19.958;2023-03-25T14:52:25;8.95;;;3.75;;
56481;SDS011;42384;45.186;19.958;2023-03-25T14:54:52;8.60;;;3.47;;
56481;SDS011;42384;45.186;19.958;2023-03-25T14:57:21;9.75;;;2.95;;
56481;SDS011;42384;45.186;19.958;2023-03-25T14:59:55;17.88;;;4.93;;
56481;SDS011;42384;45.186;19.958;2023-03-25T15:02:25;9.98;;;5.03;;
56481;SDS011;42384;45.186;19.958;2023-03-25T15:04:56;11.88;;;7.18;;
56481;SDS011;42384;45.186;19.958;2023-03-25T15:10:17;12.70;;;5.30;;
56481;SDS011;42384;45.186;19.958;2023-03-25T15:12:47;8.40;;;3.70;;
56481;SDS011;42384;45.186;19.958;2023-03-25T15:15:25;11.15;;;4.30;;
56481;SDS011;42384;45.186;19.958;2023-03-25T15:17:52;6.80;;;3.47;;
56481;SDS011;42384;45.186;19.958;2023-03-25T15:25:32;4.63;;;1.73;;
56481;SDS011;42384;45.186;19.958;2023-03-25T15:28:33;3.85;;;1.40;;
56481;SDS011;42384;45.186;19.958;2023-03-25T15:46:55;12.15;;;6.45;;
56481;SDS011;42384;45.186;19.958;2023-03-25T15:54:44;12.20;;;7.72;;
56481;SDS011;42384;45.186;19.958;2023-03-25T15:57:21;12.48;;;6.95;;
56481;SDS011;42384;45.186;19.958;2023-03-25T16:02:50;12.05;;;6.05;;
56481;SDS011;42384;45.186;19.958;2023-03-25T16:05:18;10.90;;;5.18;;
56481;SDS011;42384;45.186;19.958;2023-03-25T16:10:15;8.43;;;4.82;;
56481;SDS011;42384;45.186;19.958;2023-03-25T16:12:46;8.77;;;4.70;;
56481;SDS011;42384;45.186;19.958;2023-03-25T16:15:14;11.85;;;4.75;;
56481;SDS011;42384;45.186;19.958;2023-03-25T16:17:41;8.95;;;4.25;;
56481;SDS011;42384;45.186;19.958;2023-03-25T16:20:16;10.68;;;4.03;;
56481;SDS011;42384;45.186;19.958;2023-03-25T16:22:49;7.55;;;3.85;;
56481;SDS011;42384;45.186;19.958;2023-03-25T16:25:17;6.97;;;4.28;;
56481;SDS011;42384;45.186;19.958;2023-03-25T16:27:45;7.03;;;3.58;;
56481;SDS011;42384;45.186;19.958;2023-03-25T16:30:19;5.68;;;3.72;;
56481;SDS011;42384;45.186;19.958;2023-03-25T16:32:46;8.23;;;4.00;;
56481;SDS011;42384;45.186;19.958;2023-03-25T16:35:25;5.47;;;3.42;;
56481;SDS011;42384;45.186;19.958;2023-03-25T16:37:55;7.80;;;4.47;;
56481;SDS011;42384;45.186;19.958;2023-03-25T16:40:26;8.48;;;4.55;;
56481;SDS011;42384;45.186;19.958;2023-03-25T16:42:53;7.97;;;4.20;;
56481;SDS011;42384;45.186;19.958;2023-03-25T16:45:20;8.18;;;4.25;;
56481;SDS011;42384;45.186;19.958;2023-03-25T16:50:14;10.20;;;4.55;;
56481;SDS011;42384;45.186;19.958;2023-03-25T16:52:43;6.13;;;4.00;;
56481;SDS011;42384;45.186;19.958;2023-03-25T16:55:12;7.28;;;4.10;;
56481;SDS011;42384;45.186;19.958;2023-03-25T16:57:39;7.82;;;4.10;;
56481;SDS011;42384;45.186;19.958;2023-03-25T17:00:13;7.90;;;3.90;;
56481;SDS011;42384;45.186;19.958;2023-03-25T17:05:20;6.95;;;4.90;;
56481;SDS011;42384;45.186;19.958;2023-03-25T17:10:59;7.25;;;4.38;;
56481;SDS011;42384;45.186;19.958;2023-03-25T17:13:06;9.32;;;4.43;;
56481;SDS011;42384;45.186;19.958;2023-03-25T17:15:33;8.38;;;4.05;;
56481;SDS011;42384;45.186;19.958;2023-03-25T17:18:00;6.90;;;3.95;;
56481;SDS011;42384;45.186;19.958;2023-03-25T17:20:35;6.82;;;3.60;;
56481;SDS011;42384;45.186;19.958;2023-03-25T17:23:05;5.47;;;2.42;;
56481;SDS011;42384;45.186;19.958;2023-03-25T17:25:36;8.40;;;3.08;;
56481;SDS011;42384;45.186;19.958;2023-03-25T17:30:45;6.20;;;2.92;;
56481;SDS011;42384;45.186;19.958;2023-03-25T17:33:13;6.82;;;3.08;;
56481;SDS011;42384;45.186;19.958;2023-03-25T17:35:40;5.70;;;2.88;;
56481;SDS011;42384;45.186;19.958;2023-03-25T17:38:11;6.72;;;2.97;;
56481;SDS011;42384;45.186;19.958;2023-03-25T17:40:38;6.32;;;3.53;;
56481;SDS011;42384;45.186;19.958;2023-03-25T17:43:04;4.83;;;2.87;;
56481;SDS011;42384;45.186;19.958;2023-03-25T17:45:30;7.93;;;3.30;;
56481;SDS011;42384;45.186;19.958;2023-03-25T17:47:57;5.72;;;2.60;;
56481;SDS011;42384;45.186;19.958;2023-03-25T17:50:24;10.13;;;9.07;;